createdAt,value
2023-03-22T00:00:17.797Z,7.23
2023-03-22T00:03:21.494Z,7.09
2023-03-22T00:06:24.193Z,7.02
2023-03-22T00:09:26.789Z,6.99
2023-03-22T00:12:29.186Z,6.87
2023-03-22T00:15:32.142Z,6.86
2023-03-22T00:18:34.573Z,7.01
2023-03-22T00:21:37.234Z,7.18
2023-03-22T00:24:39.701Z,7.30
2023-03-22T00:27:42.437Z,7.20
2023-03-22T00:30:52.023Z,7.00
2023-03-22T00:33:56.614Z,6.99
2023-03-22T00:36:59.142Z,7.04
2023-03-22T00:40:01.806Z,7.06
2023-03-22T00:43:04.331Z,6.89
2023-03-22T00:46:07.542Z,6.75
2023-03-22T00:49:09.897Z,6.68
2023-03-22T00:52:12.480Z,6.54
2023-03-22T00:55:14.828Z,6.46
2023-03-22T00:58:17.470Z,6.39
2023-03-22T01:01:20.146Z,6.38
2023-03-22T01:04:26.109Z,6.32
2023-03-22T01:07:28.527Z,6.21
2023-03-22T01:10:31.137Z,6.15
2023-03-22T01:13:33.487Z,6.04
2023-03-22T01:16:42.198Z,6.00
2023-03-22T01:19:44.789Z,5.97
2023-03-22T01:22:47.610Z,5.98
2023-03-22T01:25:49.964Z,5.94
2023-03-22T01:28:53.202Z,5.88
2023-03-22T01:31:55.667Z,5.81
2023-03-22T01:34:58.569Z,5.73
2023-03-22T01:38:03.925Z,5.77
2023-03-22T01:41:08.021Z,5.69
2023-03-22T01:44:13.311Z,5.61
2023-03-22T01:47:16.168Z,5.53
2023-03-22T01:50:19.486Z,5.49
2023-03-22T01:53:23.746Z,5.42
2023-03-22T01:56:28.413Z,5.42
2023-03-22T01:59:31.302Z,5.37
2023-03-22T02:02:34.866Z,5.29
2023-03-22T02:05:40.940Z,5.24
2023-03-22T02:08:43.460Z,5.22
2023-03-22T02:11:50.295Z,5.18
2023-03-22T02:15:08.686Z,5.12
2023-03-22T02:18:16.517Z,5.25
2023-03-22T02:21:31.595Z,5.29
2023-03-22T02:24:51.787Z,5.36
2023-03-22T02:28:09.566Z,5.32
2023-03-22T02:31:22.263Z,5.21
2023-03-22T02:34:54.108Z,5.18
2023-03-22T02:37:56.739Z,5.15
2023-03-22T02:41:06.333Z,5.11
2023-03-22T02:44:11.742Z,5.18
2023-03-22T02:47:21.829Z,5.27
2023-03-22T02:50:28.528Z,5.23
2023-03-22T02:53:30.850Z,5.15
2023-03-22T02:56:46.354Z,5.12
2023-03-22T02:59:50.234Z,5.15
2023-03-22T03:02:55.627Z,5.27
2023-03-22T03:06:01.447Z,5.45
2023-03-22T03:09:05.278Z,5.49
2023-03-22T03:12:34.190Z,5.62
2023-03-22T03:15:39.523Z,5.65
2023-03-22T03:18:48.475Z,5.87
2023-03-22T03:22:01.416Z,5.86
2023-03-22T03:25:09.408Z,5.96
2023-03-22T03:28:22.976Z,5.92
2023-03-22T03:31:34.819Z,5.95
2023-03-22T03:34:42.127Z,5.93
2023-03-22T03:37:47.153Z,6.04
2023-03-22T03:40:52.613Z,5.97
2023-03-22T03:43:58.261Z,6.02
2023-03-22T03:47:02.161Z,6.04
2023-03-22T03:50:04.764Z,5.94
2023-03-22T03:53:10.030Z,5.84
2023-03-22T03:56:12.440Z,5.82
2023-03-22T03:59:16.390Z,5.79
2023-03-22T04:02:19.099Z,5.74
2023-03-22T04:05:22.166Z,5.82
2023-03-22T04:08:24.415Z,5.77
2023-03-22T04:11:27.285Z,5.82
2023-03-22T04:14:30.277Z,5.98
2023-03-22T04:17:33.529Z,5.83
2023-03-22T04:20:35.945Z,5.71
2023-03-22T04:23:39.417Z,5.68
2023-03-22T04:26:41.913Z,5.62
2023-03-22T04:29:52.275Z,5.60
2023-03-22T04:32:57.182Z,5.42
2023-03-22T04:36:02.964Z,5.27
2023-03-22T04:39:09.557Z,5.32
2023-03-22T04:42:13.406Z,5.24
2023-03-22T04:45:16.269Z,5.20
2023-03-22T04:48:22.293Z,5.24
2023-03-22T04:51:25.877Z,5.20
2023-03-22T04:54:31.069Z,5.20
2023-03-22T04:57:35.287Z,5.20
2023-03-22T05:00:38.982Z,5.24
2023-03-22T05:03:43.022Z,5.36
2023-03-22T05:06:46.711Z,5.44
2023-03-22T05:09:49.976Z,5.60
2023-03-22T05:12:52.767Z,5.67
2023-03-22T05:15:56.302Z,5.81
2023-03-22T05:19:03.623Z,5.88
2023-03-22T05:22:06.008Z,5.90
2023-03-22T05:25:11.598Z,5.94
2023-03-22T05:28:15.867Z,6.09
2023-03-22T05:31:21.776Z,6.27
2023-03-22T05:34:24.691Z,6.30
2023-03-22T05:37:27.370Z,6.41
2023-03-22T05:40:30.471Z,6.67
2023-03-22T05:43:33.647Z,6.99
2023-03-22T05:46:36.457Z,7.17
2023-03-22T05:49:43.364Z,7.44
2023-03-22T05:52:47.168Z,7.83
2023-03-22T05:55:50.936Z,8.08
2023-03-22T05:58:53.620Z,8.53
2023-03-22T06:01:56.668Z,11.13
2023-03-22T06:04:59.314Z,15.45
2023-03-22T06:08:01.778Z,19.51
2023-03-22T06:11:05.305Z,18.23
2023-03-22T06:14:07.688Z,16.01
2023-03-22T06:17:13.453Z,16.34
2023-03-22T06:20:16.794Z,16.39
2023-03-22T06:23:20.386Z,17.21
2023-03-22T06:26:22.891Z,19.08
2023-03-22T06:29:25.648Z,22.25
2023-03-22T06:32:28.638Z,21.92
2023-03-22T06:35:34.882Z,20.11
2023-03-22T06:38:37.439Z,17.54
2023-03-22T06:41:40.176Z,17.50
2023-03-22T06:44:44.706Z,19.60
2023-03-22T06:47:47.894Z,18.67
2023-03-22T06:50:50.645Z,22.66
2023-03-22T06:53:53.433Z,23.59
2023-03-22T06:56:55.941Z,21.35
2023-03-22T06:59:58.762Z,20.07
2023-03-22T07:03:01.357Z,18.29
2023-03-22T07:06:06.730Z,18.06
2023-03-22T07:09:10.431Z,16.58
2023-03-22T07:12:13.945Z,16.57
2023-03-22T07:15:17.505Z,15.98
2023-03-22T07:18:22.593Z,15.80
2023-03-22T07:21:25.312Z,15.64
2023-03-22T07:24:28.442Z,15.20
2023-03-22T07:27:30.812Z,15.28
2023-03-22T07:30:37.880Z,15.51
2023-03-22T07:33:41.072Z,15.57
2023-03-22T07:36:43.814Z,15.89
2023-03-22T07:39:46.609Z,17.14
2023-03-22T07:42:49.740Z,16.99
2023-03-22T07:45:53.289Z,17.21
2023-03-22T07:49:02.874Z,17.26
2023-03-22T07:52:08.226Z,17.27
2023-03-22T07:55:12.426Z,17.04
2023-03-22T07:58:15.024Z,17.05
2023-03-22T08:01:18.082Z,17.27
2023-03-22T08:04:22.739Z,17.34
2023-03-22T08:07:25.314Z,17.33
2023-03-22T08:10:28.039Z,16.95
2023-03-22T08:13:30.622Z,17.36
2023-03-22T08:16:35.529Z,17.21
2023-03-22T08:19:38.779Z,16.79
2023-03-22T08:22:42.521Z,17.33
2023-03-22T08:25:47.955Z,17.46
2023-03-22T08:28:51.188Z,17.44
2023-03-22T08:31:54.175Z,17.36
2023-03-22T08:34:56.942Z,17.76
2023-03-22T08:37:59.411Z,17.80
2023-03-22T08:41:03.495Z,17.20
2023-03-22T08:44:06.404Z,17.28
2023-03-22T08:47:09.601Z,17.45
2023-03-22T08:50:13.271Z,17.69
2023-03-22T08:53:18.769Z,17.51
2023-03-22T08:56:22.708Z,17.24
2023-03-22T08:59:26.259Z,17.46
2023-03-22T09:02:29.632Z,17.19
2023-03-22T09:05:32.856Z,17.22
2023-03-22T09:08:35.375Z,17.32
2023-03-22T09:11:41.476Z,17.98
2023-03-22T09:14:46.289Z,18.63
2023-03-22T09:17:49.490Z,18.54
2023-03-22T09:20:52.719Z,18.95
2023-03-22T09:23:56.195Z,19.15
2023-03-22T09:26:59.357Z,18.78
2023-03-22T09:30:02.505Z,18.77
2023-03-22T09:33:06.628Z,19.04
2023-03-22T09:36:11.935Z,19.21
2023-03-22T09:39:16.501Z,19.44
2023-03-22T09:42:25.851Z,18.70
2023-03-22T09:45:38.393Z,19.08
2023-03-22T09:48:43.075Z,19.35
2023-03-22T09:51:47.984Z,19.50
2023-03-22T09:54:52.888Z,19.52
2023-03-22T09:58:18.488Z,19.34
2023-03-22T10:01:40.595Z,19.42
2023-03-22T10:04:43.258Z,19.33
2023-03-22T10:07:45.570Z,18.98
2023-03-22T10:10:48.627Z,18.67
2023-03-22T10:14:20.305Z,18.68
2023-03-22T10:17:25.473Z,18.03
2023-03-22T10:20:45.838Z,17.96
2023-03-22T10:23:57.150Z,17.51
2023-03-22T10:26:59.465Z,17.68
2023-03-22T10:30:28.536Z,17.45
2023-03-22T10:33:30.830Z,17.02
2023-03-22T10:36:35.347Z,17.03
2023-03-22T10:39:40.955Z,17.02
2023-03-22T10:42:47.754Z,16.84
2023-03-22T10:45:52.619Z,16.94
2023-03-22T10:48:58.004Z,16.91
2023-03-22T10:52:06.743Z,16.54
2023-03-22T10:55:11.090Z,16.54
2023-03-22T10:58:18.020Z,16.43
2023-03-22T11:01:34.392Z,16.23
2023-03-22T11:04:37.528Z,16.13
2023-03-22T11:07:43.576Z,16.00
2023-03-22T11:10:49.833Z,15.88
2023-03-22T11:13:59.401Z,15.89
2023-03-22T11:17:21.915Z,15.80
2023-03-22T11:20:24.691Z,15.71
2023-03-22T11:23:28.797Z,15.52
2023-03-22T11:26:39.233Z,15.46
2023-03-22T11:29:45.765Z,15.57
2023-03-22T11:32:48.520Z,15.50
2023-03-22T11:35:55.576Z,15.75
2023-03-22T11:39:03.123Z,15.76
2023-03-22T11:42:06.453Z,15.88
2023-03-22T11:45:15.021Z,16.27
2023-03-22T11:48:28.963Z,16.81
2023-03-22T11:51:35.113Z,17.12
2023-03-22T11:54:39.322Z,17.34
2023-03-22T11:57:41.940Z,17.67
2023-03-22T12:00:44.580Z,17.55
2023-03-22T12:03:51.194Z,17.67
2023-03-22T12:06:56.714Z,18.13
2023-03-22T12:10:18.816Z,18.09
2023-03-22T12:13:25.099Z,18.24
2023-03-22T12:16:35.407Z,18.22
2023-03-22T12:19:58.574Z,18.33
2023-03-22T12:23:01.925Z,18.59
2023-03-22T12:26:06.390Z,18.80
2023-03-22T12:29:18.280Z,18.74
2023-03-22T12:32:47.009Z,18.88
2023-03-22T12:35:51.531Z,18.88
2023-03-22T12:38:58.700Z,19.18
2023-03-22T12:42:15.484Z,19.43
2023-03-22T12:45:20.649Z,19.38
2023-03-22T12:48:29.664Z,19.15
2023-03-22T12:51:32.112Z,19.07
2023-03-22T12:54:35.653Z,18.85
2023-03-22T12:57:40.592Z,18.47
2023-03-22T13:00:46.241Z,18.51
2023-03-22T13:03:52.276Z,18.44
2023-03-22T13:06:56.823Z,18.93
2023-03-22T13:10:00.013Z,19.29
2023-03-22T13:13:12.952Z,19.35
2023-03-22T13:16:17.416Z,19.67
2023-03-22T13:19:32.341Z,20.02
2023-03-22T13:22:37.807Z,20.26
2023-03-22T13:25:58.436Z,20.07
2023-03-22T13:29:03.256Z,20.18
2023-03-22T13:32:07.126Z,20.12
2023-03-22T13:35:21.957Z,20.12
2023-03-22T13:38:34.405Z,19.63
2023-03-22T13:41:36.886Z,19.50
2023-03-22T13:44:43.042Z,19.48
2023-03-22T13:47:46.772Z,19.76
2023-03-22T13:50:49.618Z,20.03
2023-03-22T13:54:07.076Z,20.05
2023-03-22T13:57:20.310Z,20.10
2023-03-22T14:00:31.744Z,19.31
2023-03-22T14:03:37.391Z,19.37
2023-03-22T14:06:51.659Z,19.17
2023-03-22T14:09:56.816Z,19.15
2023-03-22T14:13:13.587Z,18.94
2023-03-22T14:16:19.753Z,19.25
2023-03-22T14:19:23.934Z,19.33
